createdAt,value
2023-09-10T00:04:24.308Z,18.30
2023-09-10T00:09:27.600Z,22.60
2023-09-10T00:14:31.591Z,18.40
2023-09-10T00:19:34.964Z,23.70
2023-09-10T00:24:37.779Z,17.80
2023-09-10T00:29:40.832Z,17.50
2023-09-10T00:34:42.791Z,14.40
2023-09-10T00:39:45.983Z,15.10
2023-09-10T00:44:48.743Z,16.80
2023-09-10T00:49:51.615Z,16.10
2023-09-10T00:54:54.327Z,19.30
2023-09-10T00:59:59.179Z,16.50
2023-09-10T01:05:04.108Z,16.10
2023-09-10T01:10:08.296Z,17.00
2023-09-10T01:15:30.207Z,20.00
2023-09-10T01:21:06.143Z,16.30
2023-09-10T01:26:10.133Z,16.30
2023-09-10T01:31:12.879Z,16.90
2023-09-10T01:36:31.845Z,15.80
2023-09-10T01:41:37.017Z,16.40
2023-09-10T01:46:41.970Z,18.90
2023-09-10T01:51:45.516Z,16.60
2023-09-10T01:56:47.999Z,17.30
2023-09-10T02:01:50.860Z,17.90
2023-09-10T02:06:55.100Z,16.80
2023-09-10T02:11:58.752Z,23.00
2023-09-10T02:17:03.334Z,20.60
2023-09-10T02:22:06.948Z,16.20
2023-09-10T02:27:10.992Z,15.90
2023-09-10T02:32:13.918Z,15.60
2023-09-10T02:37:16.977Z,18.60
2023-09-10T02:42:19.781Z,15.00
2023-09-10T02:47:22.919Z,13.80
2023-09-10T02:52:27.673Z,14.70
2023-09-10T02:57:30.325Z,16.90
2023-09-10T03:02:33.261Z,13.40
2023-09-10T03:07:36.927Z,16.90
2023-09-10T03:12:39.915Z,16.70
2023-09-10T03:17:42.475Z,16.00
2023-09-10T03:22:46.264Z,14.60
2023-09-10T03:27:49.529Z,15.40
2023-09-10T03:32:53.150Z,16.40
2023-09-10T03:37:56.284Z,17.10
2023-09-10T03:42:59.537Z,17.50
2023-09-10T03:48:03.381Z,26.80
2023-09-10T03:53:06.734Z,17.30
2023-09-10T03:58:11.120Z,31.60
2023-09-10T04:03:14.693Z,17.70
2023-09-10T04:08:18.470Z,16.50
2023-09-10T04:13:21.817Z,17.40
2023-09-10T04:18:25.462Z,16.60
2023-09-10T04:23:29.120Z,16.30
2023-09-10T04:28:32.358Z,13.50
2023-09-10T04:33:36.419Z,15.60
2023-09-10T04:38:40.456Z,13.80
2023-09-10T04:43:43.648Z,22.20
2023-09-10T04:48:46.957Z,26.90
2023-09-10T04:53:53.558Z,19.70
2023-09-10T04:58:56.864Z,16.40
2023-09-10T05:04:00.581Z,16.40
2023-09-10T05:09:05.003Z,19.10
2023-09-10T05:14:08.628Z,15.90
2023-09-10T05:19:11.704Z,28.00
2023-09-10T05:24:14.110Z,37.40
2023-09-10T05:29:16.365Z,16.50
2023-09-10T05:34:20.404Z,19.30
2023-09-10T05:39:24.148Z,20.80
2023-09-10T05:44:26.833Z,25.30
2023-09-10T05:49:29.490Z,21.10
2023-09-10T05:54:32.275Z,24.90
2023-09-10T05:59:34.811Z,41.70
2023-09-10T06:04:37.295Z,23.70
2023-09-10T06:09:39.477Z,24.90
2023-09-10T06:14:43.541Z,24.50
2023-09-10T06:19:49.629Z,22.40
2023-09-10T06:24:53.025Z,24.00
2023-09-10T06:29:55.899Z,25.30
2023-09-10T06:34:59.243Z,21.00
2023-09-10T06:40:02.479Z,22.30
2023-09-10T06:45:05.428Z,23.80
2023-09-10T06:50:08.277Z,21.00
2023-09-10T06:55:11.917Z,21.30
2023-09-10T07:00:15.374Z,18.90
2023-09-10T07:05:17.962Z,23.00
2023-09-10T07:10:23.855Z,18.10
2023-09-10T07:15:26.818Z,18.30
2023-09-10T07:20:29.523Z,17.00
2023-09-10T07:25:31.718Z,18.80
2023-09-10T07:30:36.614Z,15.40
2023-09-10T07:40:43.825Z,16.40
2023-09-10T07:45:48.517Z,15.90
2023-09-10T07:50:57.601Z,15.40
2023-09-10T07:56:01.353Z,15.80
2023-09-10T08:01:05.050Z,14.90
2023-09-10T08:06:08.398Z,17.70
2023-09-10T08:11:11.719Z,15.30
2023-09-10T08:16:16.600Z,21.20
2023-09-10T08:21:21.216Z,16.10
2023-09-10T08:26:25.486Z,17.30
2023-09-10T08:31:28.553Z,14.20
2023-09-10T08:36:32.606Z,15.60
2023-09-10T08:41:48.357Z,14.10
2023-09-10T08:46:53.357Z,11.80
2023-09-10T08:51:57.527Z,12.70
2023-09-10T08:57:00.900Z,11.40
2023-09-10T09:02:03.527Z,13.00
2023-09-10T09:07:10.371Z,12.90
2023-09-10T09:12:14.898Z,12.50
2023-09-10T09:17:21.644Z,13.00
2023-09-10T09:22:29.617Z,11.80
2023-09-10T09:27:35.064Z,12.80
2023-09-10T09:32:41.020Z,12.60
2023-09-10T09:37:44.939Z,11.80
2023-09-10T09:42:48.204Z,20.80
2023-09-10T09:47:52.212Z,12.20
2023-09-10T09:52:56.823Z,10.90
2023-09-10T09:57:59.322Z,8.90
2023-09-10T10:03:03.955Z,11.70
2023-09-10T10:08:07.783Z,13.50
2023-09-10T10:13:10.947Z,15.60
2023-09-10T10:18:16.308Z,10.20
2023-09-10T10:28:31.915Z,20.40
2023-09-10T10:33:38.492Z,14.10
2023-09-10T10:38:45.902Z,10.80
2023-09-10T10:43:54.021Z,8.70
2023-09-10T10:49:02.296Z,8.90
2023-09-10T10:54:05.006Z,10.30
2023-09-10T10:59:08.046Z,9.90
2023-09-10T11:04:20.202Z,9.60
2023-09-10T11:09:36.526Z,11.00
2023-09-10T11:14:58.109Z,9.90
2023-09-10T11:20:01.602Z,8.20
2023-09-10T11:25:08.753Z,16.10
2023-09-10T11:30:21.328Z,10.20
2023-09-10T11:35:23.671Z,9.10
2023-09-10T11:40:26.573Z,9.00
2023-09-10T11:45:33.297Z,8.20
2023-09-10T11:50:36.480Z,9.10
2023-09-10T11:55:39.367Z,6.60
2023-09-10T12:00:44.024Z,9.60
2023-09-10T12:05:47.388Z,10.90
2023-09-10T12:10:55.416Z,9.80
2023-09-10T12:15:57.922Z,9.90
2023-09-10T12:21:01.319Z,7.80
2023-09-10T12:26:05.070Z,6.40
2023-09-10T12:31:07.721Z,8.20
2023-09-10T12:36:10.742Z,8.50
2023-09-10T12:41:17.590Z,7.70
2023-09-10T12:46:20.229Z,10.30
2023-09-10T12:51:22.578Z,8.10
2023-09-10T12:56:25.369Z,13.10
2023-09-10T13:01:28.677Z,12.10
2023-09-10T13:06:31.422Z,7.60
2023-09-10T13:11:35.257Z,8.90
2023-09-10T13:16:39.187Z,11.00
2023-09-10T13:21:42.861Z,8.90
2023-09-10T13:26:45.958Z,8.80
2023-09-10T13:31:48.937Z,10.60
2023-09-10T13:36:52.722Z,8.40
2023-09-10T13:41:56.334Z,6.80
2023-09-10T13:46:59.477Z,9.90
2023-09-10T13:52:01.783Z,8.50
2023-09-10T13:57:05.160Z,10.40
2023-09-10T14:02:07.796Z,11.00
2023-09-10T14:07:10.289Z,7.70
2023-09-10T14:12:12.688Z,8.50
2023-09-10T14:17:15.117Z,8.40
2023-09-10T14:22:17.776Z,9.20
2023-09-10T14:27:20.686Z,8.70
2023-09-10T14:32:23.234Z,11.10
2023-09-10T14:37:26.616Z,9.00
2023-09-10T14:42:28.547Z,7.80
2023-09-10T14:47:36.229Z,10.10
2023-09-10T14:52:39.154Z,7.40
2023-09-10T14:57:43.179Z,7.60
2023-09-10T15:02:45.536Z,8.60
2023-09-10T15:07:48.169Z,8.50
2023-09-10T15:12:50.388Z,7.90
2023-09-10T15:17:53.011Z,8.30
2023-09-10T15:22:55.302Z,12.60
2023-09-10T15:27:57.491Z,8.50
2023-09-10T15:33:01.130Z,8.00
2023-09-10T15:38:05.780Z,9.70
2023-09-10T15:43:08.892Z,8.70
2023-09-10T15:48:12.783Z,7.90
2023-09-10T15:53:16.605Z,23.40
2023-09-10T15:58:20.224Z,11.10
2023-09-10T16:03:24.585Z,9.00
2023-09-10T16:08:31.332Z,11.00
2023-09-10T16:13:35.442Z,8.80
2023-09-10T16:18:39.232Z,20.40
2023-09-10T16:23:43.945Z,11.20
2023-09-10T16:28:48.718Z,9.70
2023-09-10T16:33:52.723Z,12.90
2023-09-10T16:38:57.052Z,12.40
2023-09-10T16:44:02.126Z,9.50
2023-09-10T16:49:06.983Z,10.30
2023-09-10T16:54:09.968Z,9.90
2023-09-10T16:59:20.785Z,11.10
2023-09-10T17:04:31.716Z,9.30
2023-09-10T17:09:34.887Z,11.70
2023-09-10T17:14:37.266Z,8.60
2023-09-10T17:19:39.513Z,11.70
2023-09-10T17:24:41.512Z,10.50
2023-09-10T17:29:43.874Z,11.80
2023-09-10T17:34:45.980Z,10.50
2023-09-10T17:39:48.157Z,14.10
2023-09-10T17:44:52.139Z,9.80
2023-09-10T17:50:05.356Z,12.90
2023-09-10T17:55:12.096Z,15.70
2023-09-10T18:00:14.686Z,12.10
2023-09-10T18:05:17.389Z,13.30
2023-09-10T18:10:21.441Z,9.20
2023-09-10T18:15:25.091Z,12.70
2023-09-10T18:20:28.432Z,10.70
2023-09-10T18:25:32.112Z,15.80
2023-09-10T18:30:34.587Z,10.50
2023-09-10T18:35:38.107Z,14.30
2023-09-10T18:40:46.242Z,10.00
2023-09-10T18:45:49.186Z,11.10
2023-09-10T18:50:53.187Z,10.80
2023-09-10T18:55:57.414Z,10.60
2023-09-10T19:01:03.007Z,11.70
2023-09-10T19:06:07.246Z,13.10
2023-09-10T19:11:11.242Z,10.50
2023-09-10T19:16:18.851Z,11.70
2023-09-10T19:21:23.121Z,12.50
2023-09-10T19:26:26.758Z,12.50
2023-09-10T19:31:35.472Z,10.70
2023-09-10T19:36:39.276Z,11.70
2023-09-10T19:41:44.261Z,13.00
2023-09-10T19:46:48.166Z,12.40
2023-09-10T19:51:55.145Z,11.90
2023-09-10T19:57:00.037Z,13.20
2023-09-10T20:02:06.192Z,17.00
2023-09-10T20:07:10.013Z,12.30
2023-09-10T20:12:14.166Z,14.00
2023-09-10T20:17:18.837Z,32.70
2023-09-10T20:22:22.100Z,16.10
2023-09-10T20:27:26.266Z,12.70
2023-09-10T20:32:30.522Z,15.80
2023-09-10T20:37:33.318Z,13.30
2023-09-10T20:42:37.465Z,12.40
2023-09-10T20:47:40.717Z,13.10
2023-09-10T20:52:47.634Z,19.10
2023-09-10T20:57:51.079Z,13.00
2023-09-10T21:02:58.570Z,13.70
2023-09-10T21:08:02.024Z,14.70
2023-09-10T21:13:12.007Z,13.40
2023-09-10T21:18:16.349Z,21.40
2023-09-10T21:23:20.893Z,13.70
2023-09-10T21:28:25.022Z,16.40
2023-09-10T21:33:28.546Z,12.50
2023-09-10T21:38:32.362Z,13.80
2023-09-10T21:43:36.043Z,14.80
2023-09-10T21:48:39.757Z,12.40
2023-09-10T21:53:44.218Z,13.40
2023-09-10T21:58:47.605Z,13.20
2023-09-10T22:03:50.529Z,16.30
2023-09-10T22:08:54.258Z,16.40
2023-09-10T22:13:58.116Z,17.20
2023-09-10T22:19:02.571Z,15.30
2023-09-10T22:24:06.240Z,13.50
2023-09-10T22:29:09.697Z,20.10
2023-09-10T22:34:13.086Z,15.70
2023-09-10T22:39:17.261Z,14.80
2023-09-10T22:44:19.386Z,15.40
2023-09-10T22:49:22.537Z,13.20
2023-09-10T22:54:25.409Z,13.30
2023-09-10T22:59:28.367Z,13.40
2023-09-10T23:04:31.206Z,16.10
2023-09-10T23:09:35.310Z,16.10
2023-09-10T23:14:39.712Z,14.30
2023-09-10T23:19:42.567Z,12.80
2023-09-10T23:24:47.573Z,14.20
2023-09-10T23:29:50.934Z,12.30
2023-09-10T23:34:54.798Z,13.50
2023-09-10T23:39:59.374Z,16.20
2023-09-10T23:45:03.267Z,14.30
2023-09-10T23:50:07.341Z,12.50
2023-09-10T23:55:10.040Z,13.70
